sensor_id;sensor_type;location;lat;lon;timestamp;P1;durP1;ratioP1;P2;durP2;ratioP2
23768;SDS011;12064;50.890;5.424;2023-02-12T00:08:03;2.90;;;2.70;;
23768;SDS011;12064;50.890;5.424;2023-02-12T00:16:54;3.63;;;2.65;;
23768;SDS011;12064;50.890;5.424;2023-02-12T00:25:45;2.72;;;2.53;;
23768;SDS011;12064;50.890;5.424;2023-02-12T00:34:35;2.90;;;2.70;;
23768;SDS011;12064;50.890;5.424;2023-02-12T00:43:29;2.70;;;2.50;;
23768;SDS011;12064;50.890;5.424;2023-02-12T00:52:20;3.28;;;3.00;;
23768;SDS011;12064;50.890;5.424;2023-02-12T01:01:11;2.83;;;2.63;;
23768;SDS011;12064;50.890;5.424;2023-02-12T01:10:01;3.05;;;2.78;;
23768;SDS011;12064;50.890;5.424;2023-02-12T01:18:53;3.08;;;2.88;;
23768;SDS011;12064;50.890;5.424;2023-02-12T01:27:44;2.95;;;2.60;;
23768;SDS011;12064;50.890;5.424;2023-02-12T01:36:35;3.15;;;2.80;;
23768;SDS011;12064;50.890;5.424;2023-02-12T01:45:43;3.10;;;2.80;;
23768;SDS011;12064;50.890;5.424;2023-02-12T01:54:35;3.15;;;2.80;;
23768;SDS011;12064;50.890;5.424;2023-02-12T02:03:27;3.40;;;3.15;;
23768;SDS011;12064;50.890;5.424;2023-02-12T02:12:18;3.10;;;2.90;;
23768;SDS011;12064;50.890;5.424;2023-02-12T02:48:53;3.53;;;3.22;;
23768;SDS011;12064;50.890;5.424;2023-02-12T02:58:03;3.30;;;3.00;;
23768;SDS011;12064;50.890;5.424;2023-02-12T03:07:05;3.33;;;3.03;;
23768;SDS011;12064;50.890;5.424;2023-02-12T03:16:11;3.50;;;3.20;;
23768;SDS011;12064;50.890;5.424;2023-02-12T03:25:12;3.88;;;3.50;;
23768;SDS011;12064;50.890;5.424;2023-02-12T03:34:08;3.47;;;3.17;;
23768;SDS011;12064;50.890;5.424;2023-02-12T03:43:11;3.70;;;3.40;;
23768;SDS011;12064;50.890;5.424;2023-02-12T03:52:16;3.55;;;3.25;;
23768;SDS011;12064;50.890;5.424;2023-02-12T04:01:08;3.42;;;3.13;;
23768;SDS011;12064;50.890;5.424;2023-02-12T04:10:00;3.55;;;3.25;;
23768;SDS011;12064;50.890;5.424;2023-02-12T04:18:51;3.55;;;3.25;;
23768;SDS011;12064;50.890;5.424;2023-02-12T04:36:51;3.47;;;3.17;;
23768;SDS011;12064;50.890;5.424;2023-02-12T04:46:04;3.30;;;3.00;;
23768;SDS011;12064;50.890;5.424;2023-02-12T04:54:56;3.15;;;2.95;;
23768;SDS011;12064;50.890;5.424;2023-02-12T05:03:47;3.20;;;2.93;;
23768;SDS011;12064;50.890;5.424;2023-02-12T05:12:38;2.83;;;2.63;;
23768;SDS011;12064;50.890;5.424;2023-02-12T05:21:29;3.13;;;2.83;;
23768;SDS011;12064;50.890;5.424;2023-02-12T05:30:19;3.38;;;3.08;;
23768;SDS011;12064;50.890;5.424;2023-02-12T05:39:10;3.40;;;3.10;;
23768;SDS011;12064;50.890;5.424;2023-02-12T05:48:03;3.00;;;2.77;;
23768;SDS011;12064;50.890;5.424;2023-02-12T05:56:53;3.08;;;2.88;;
23768;SDS011;12064;50.890;5.424;2023-02-12T06:05:49;3.25;;;3.00;;
23768;SDS011;12064;50.890;5.424;2023-02-12T06:14:41;2.88;;;2.67;;
23768;SDS011;12064;50.890;5.424;2023-02-12T06:23:33;2.90;;;2.70;;
23768;SDS011;12064;50.890;5.424;2023-02-12T06:32:25;3.08;;;2.88;;
23768;SDS011;12064;50.890;5.424;2023-02-12T06:41:16;3.08;;;2.88;;
23768;SDS011;12064;50.890;5.424;2023-02-12T06:50:07;3.28;;;3.08;;
23768;SDS011;12064;50.890;5.424;2023-02-12T06:59:01;3.45;;;3.15;;
23768;SDS011;12064;50.890;5.424;2023-02-12T07:07:54;3.25;;;3.05;;
23768;SDS011;12064;50.890;5.424;2023-02-12T07:16:45;3.17;;;2.95;;
23768;SDS011;12064;50.890;5.424;2023-02-12T07:25:37;3.40;;;3.10;;
23768;SDS011;12064;50.890;5.424;2023-02-12T07:34:28;3.30;;;3.08;;
23768;SDS011;12064;50.890;5.424;2023-02-12T07:43:19;4.13;;;3.40;;
23768;SDS011;12064;50.890;5.424;2023-02-12T07:52:10;3.37;;;3.00;;
23768;SDS011;12064;50.890;5.424;2023-02-12T08:01:09;3.70;;;3.40;;
23768;SDS011;12064;50.890;5.424;2023-02-12T08:10:01;3.90;;;3.60;;
23768;SDS011;12064;50.890;5.424;2023-02-12T08:18:54;3.80;;;3.50;;
23768;SDS011;12064;50.890;5.424;2023-02-12T08:27:45;4.05;;;3.75;;
23768;SDS011;12064;50.890;5.424;2023-02-12T08:36:37;5.95;;;4.97;;
23768;SDS011;12064;50.890;5.424;2023-02-12T08:45:29;5.20;;;4.70;;
23768;SDS011;12064;50.890;5.424;2023-02-12T08:54:22;5.40;;;4.90;;
23768;SDS011;12064;50.890;5.424;2023-02-12T09:03:14;6.05;;;5.55;;
23768;SDS011;12064;50.890;5.424;2023-02-12T09:12:05;6.27;;;5.60;;
23768;SDS011;12064;50.890;5.424;2023-02-12T09:20:59;7.18;;;5.65;;
23768;SDS011;12064;50.890;5.424;2023-02-12T09:29:52;6.75;;;5.97;;
23768;SDS011;12064;50.890;5.424;2023-02-12T09:38:43;6.57;;;5.95;;
23768;SDS011;12064;50.890;5.424;2023-02-12T09:56:39;6.70;;;6.10;;
23768;SDS011;12064;50.890;5.424;2023-02-12T10:05:37;7.03;;;6.38;;
23768;SDS011;12064;50.890;5.424;2023-02-12T10:15:10;6.82;;;6.20;;
23768;SDS011;12064;50.890;5.424;2023-02-12T10:33:40;6.88;;;6.25;;
23768;SDS011;12064;50.890;5.424;2023-02-12T10:42:38;7.35;;;6.65;;
23768;SDS011;12064;50.890;5.424;2023-02-12T11:00:57;7.07;;;6.47;;
23768;SDS011;12064;50.890;5.424;2023-02-12T11:09:50;7.43;;;6.82;;
23768;SDS011;12064;50.890;5.424;2023-02-12T11:28:14;7.50;;;6.80;;
23768;SDS011;12064;50.890;5.424;2023-02-12T11:37:17;7.68;;;6.88;;
23768;SDS011;12064;50.890;5.424;2023-02-12T11:46:09;8.30;;;6.75;;
23768;SDS011;12064;50.890;5.424;2023-02-12T11:55:21;7.07;;;6.47;;
23768;SDS011;12064;50.890;5.424;2023-02-12T12:04:16;7.37;;;6.70;;
23768;SDS011;12064;50.890;5.424;2023-02-12T12:13:28;7.35;;;6.65;;
23768;SDS011;12064;50.890;5.424;2023-02-12T12:31:52;7.28;;;6.63;;
23768;SDS011;12064;50.890;5.424;2023-02-12T12:41:26;7.28;;;6.57;;
23768;SDS011;12064;50.890;5.424;2023-02-12T12:50:22;6.55;;;6.05;;
23768;SDS011;12064;50.890;5.424;2023-02-12T13:27:19;6.93;;;6.20;;
23768;SDS011;12064;50.890;5.424;2023-02-12T13:36:16;7.00;;;6.40;;
23768;SDS011;12064;50.890;5.424;2023-02-12T14:03:45;6.35;;;5.80;;
23768;SDS011;12064;50.890;5.424;2023-02-12T14:12:35;6.60;;;6.07;;
23768;SDS011;12064;50.890;5.424;2023-02-12T14:21:48;6.35;;;5.85;;
23768;SDS011;12064;50.890;5.424;2023-02-12T14:30:41;6.50;;;6.00;;
23768;SDS011;12064;50.890;5.424;2023-02-12T14:39:32;6.07;;;5.57;;
23768;SDS011;12064;50.890;5.424;2023-02-12T14:58:14;5.82;;;5.38;;
23768;SDS011;12064;50.890;5.424;2023-02-12T15:07:13;6.00;;;5.50;;
23768;SDS011;12064;50.890;5.424;2023-02-12T15:25:34;5.57;;;5.18;;
23768;SDS011;12064;50.890;5.424;2023-02-12T15:34:32;5.80;;;5.30;;
23768;SDS011;12064;50.890;5.424;2023-02-12T15:43:32;5.95;;;5.45;;
23768;SDS011;12064;50.890;5.424;2023-02-12T15:52:35;6.05;;;5.55;;
23768;SDS011;12064;50.890;5.424;2023-02-12T16:01:30;5.75;;;5.25;;
23768;SDS011;12064;50.890;5.424;2023-02-12T16:10:22;5.72;;;5.30;;
23768;SDS011;12064;50.890;5.424;2023-02-12T16:19:23;5.43;;;5.03;;
23768;SDS011;12064;50.890;5.424;2023-02-12T16:28:23;5.28;;;4.78;;
23768;SDS011;12064;50.890;5.424;2023-02-12T16:46:30;5.30;;;4.90;;
23768;SDS011;12064;50.890;5.424;2023-02-12T16:55:23;5.38;;;4.97;;
23768;SDS011;12064;50.890;5.424;2023-02-12T17:04:13;5.40;;;5.00;;
23768;SDS011;12064;50.890;5.424;2023-02-12T17:13:22;5.22;;;4.78;;
23768;SDS011;12064;50.890;5.424;2023-02-12T17:22:17;5.05;;;4.60;;
23768;SDS011;12064;50.890;5.424;2023-02-12T17:31:13;5.20;;;4.80;;
23768;SDS011;12064;50.890;5.424;2023-02-12T17:40:04;4.90;;;4.47;;
23768;SDS011;12064;50.890;5.424;2023-02-12T17:49:00;5.43;;;4.95;;
23768;SDS011;12064;50.890;5.424;2023-02-12T17:57:54;5.55;;;5.10;;
23768;SDS011;12064;50.890;5.424;2023-02-12T18:06:45;5.57;;;5.10;;
23768;SDS011;12064;50.890;5.424;2023-02-12T18:15:38;5.15;;;4.75;;
23768;SDS011;12064;50.890;5.424;2023-02-12T18:24:36;5.60;;;4.90;;
23768;SDS011;12064;50.890;5.424;2023-02-12T18:33:44;5.70;;;5.20;;
23768;SDS011;12064;50.890;5.424;2023-02-12T18:51:26;5.47;;;5.03;;
23768;SDS011;12064;50.890;5.424;2023-02-12T19:00:20;4.72;;;4.32;;
23768;SDS011;12064;50.890;5.424;2023-02-12T19:09:11;5.35;;;4.95;;
23768;SDS011;12064;50.890;5.424;2023-02-12T19:18:06;5.68;;;5.18;;
23768;SDS011;12064;50.890;5.424;2023-02-12T19:27:01;5.32;;;4.88;;
23768;SDS011;12064;50.890;5.424;2023-02-12T19:35:52;5.20;;;4.75;;
23768;SDS011;12064;50.890;5.424;2023-02-12T19:44:42;5.00;;;4.60;;
23768;SDS011;12064;50.890;5.424;2023-02-12T19:53:36;5.07;;;4.68;;
23768;SDS011;12064;50.890;5.424;2023-02-12T20:02:30;5.00;;;4.60;;
23768;SDS011;12064;50.890;5.424;2023-02-12T20:11:22;5.03;;;4.63;;
23768;SDS011;12064;50.890;5.424;2023-02-12T20:20:14;5.00;;;4.60;;
23768;SDS011;12064;50.890;5.424;2023-02-12T20:29:12;5.28;;;4.85;;
23768;SDS011;12064;50.890;5.424;2023-02-12T20:38:04;4.32;;;4.03;;
23768;SDS011;12064;50.890;5.424;2023-02-12T20:46:56;4.65;;;4.25;;
23768;SDS011;12064;50.890;5.424;2023-02-12T20:55:50;4.50;;;4.20;;
23768;SDS011;12064;50.890;5.424;2023-02-12T21:04:54;4.78;;;4.38;;
23768;SDS011;12064;50.890;5.424;2023-02-12T21:13:50;4.88;;;4.45;;
23768;SDS011;12064;50.890;5.424;2023-02-12T21:31:40;5.10;;;4.60;;
23768;SDS011;12064;50.890;5.424;2023-02-12T21:40:32;4.78;;;4.38;;
23768;SDS011;12064;50.890;5.424;2023-02-12T21:49:26;4.70;;;4.30;;
23768;SDS011;12064;50.890;5.424;2023-02-12T21:58:20;4.93;;;4.53;;
23768;SDS011;12064;50.890;5.424;2023-02-12T22:07:13;4.63;;;4.22;;
23768;SDS011;12064;50.890;5.424;2023-02-12T22:16:15;4.57;;;4.18;;
23768;SDS011;12064;50.890;5.424;2023-02-12T22:25:07;4.75;;;4.35;;
23768;SDS011;12064;50.890;5.424;2023-02-12T22:33:59;4.87;;;4.47;;
23768;SDS011;12064;50.890;5.424;2023-02-12T22:42:53;4.72;;;4.32;;
23768;SDS011;12064;50.890;5.424;2023-02-12T22:51:43;5.13;;;4.70;;
23768;SDS011;12064;50.890;5.424;2023-02-12T23:00:34;4.97;;;4.57;;
23768;SDS011;12064;50.890;5.424;2023-02-12T23:09:25;5.15;;;4.68;;
23768;SDS011;12064;50.890;5.424;2023-02-12T23:18:16;5.47;;;4.78;;
23768;SDS011;12064;50.890;5.424;2023-02-12T23:27:07;5.13;;;4.65;;
23768;SDS011;12064;50.890;5.424;2023-02-12T23:35:59;4.85;;;4.45;;
23768;SDS011;12064;50.890;5.424;2023-02-12T23:44:51;4.82;;;4.43;;
23768;SDS011;12064;50.890;5.424;2023-02-12T23:53:42;4.95;;;4.55;;
